Antlers, Colorado
Current Conditions -  °F | °C
As of 8:53 PM on Wednesday 28 Jan 2015 (Local Time) from KEEO Reporting Station
Clear Clear  
Wind Chill: 29°   Ceiling: Unl
Heat Index: 29°   Visibility: 10mi
Dew Point: 24°   Wind: 3mph
Humidity: 82%   Direction: 80°E
Pressure: 30.31"   Gusts: NA
Location:  39.7934°N, 108.135°W
Report Text: KEEO 290353Z AUTO 08003KT 10SM CLR M02/M04 A3031 RMK AO2 SLP275 T10171044
Loading
Personal Weather Stations






























Interactive Weather Map New forecast layout! Learn more

10-Day Weather Forecast

Advertisements
Track Severe Weather on mobile